sensor_id;sensor_type;location;lat;lon;timestamp;temperature;humidity
35240;DHT22;21376;50.954;4.716;2023-07-20T00:00:02;16.00;99.90
35240;DHT22;21376;50.954;4.716;2023-07-20T00:02:28;16.00;99.90
35240;DHT22;21376;50.954;4.716;2023-07-20T00:04:56;16.10;99.90
35240;DHT22;21376;50.954;4.716;2023-07-20T00:07:25;16.10;99.90
35240;DHT22;21376;50.954;4.716;2023-07-20T00:09:54;16.10;99.90
35240;DHT22;21376;50.954;4.716;2023-07-20T00:12:20;16.10;99.90
35240;DHT22;21376;50.954;4.716;2023-07-20T00:14:46;16.20;99.90
35240;DHT22;21376;50.954;4.716;2023-07-20T00:17:11;16.20;99.90
35240;DHT22;21376;50.954;4.716;2023-07-20T00:19:37;16.20;99.90
35240;DHT22;21376;50.954;4.716;2023-07-20T00:22:04;16.30;99.90
35240;DHT22;21376;50.954;4.716;2023-07-20T00:24:30;16.30;99.90
35240;DHT22;21376;50.954;4.716;2023-07-20T00:26:56;16.40;99.90
35240;DHT22;21376;50.954;4.716;2023-07-20T00:29:21;16.50;99.90
35240;DHT22;21376;50.954;4.716;2023-07-20T00:31:49;16.50;99.90
35240;DHT22;21376;50.954;4.716;2023-07-20T00:34:15;16.50;99.90
35240;DHT22;21376;50.954;4.716;2023-07-20T00:36:40;16.60;99.90
35240;DHT22;21376;50.954;4.716;2023-07-20T00:39:07;16.60;99.90
35240;DHT22;21376;50.954;4.716;2023-07-20T00:41:34;16.30;99.90
35240;DHT22;21376;50.954;4.716;2023-07-20T00:44:03;16.20;99.90
35240;DHT22;21376;50.954;4.716;2023-07-20T00:46:29;16.40;99.90
35240;DHT22;21376;50.954;4.716;2023-07-20T00:48:58;16.40;99.90
35240;DHT22;21376;50.954;4.716;2023-07-20T00:51:24;16.40;99.90
35240;DHT22;21376;50.954;4.716;2023-07-20T00:53:50;16.40;99.90
35240;DHT22;21376;50.954;4.716;2023-07-20T00:56:16;16.50;99.90
35240;DHT22;21376;50.954;4.716;2023-07-20T00:58:43;16.60;99.90
35240;DHT22;21376;50.954;4.716;2023-07-20T01:01:11;16.60;99.90
35240;DHT22;21376;50.954;4.716;2023-07-20T01:03:38;16.50;99.90
35240;DHT22;21376;50.954;4.716;2023-07-20T01:09:01;16.70;99.90
35240;DHT22;21376;50.954;4.716;2023-07-20T01:13:53;16.70;99.90
35240;DHT22;21376;50.954;4.716;2023-07-20T01:16:19;16.70;99.90
35240;DHT22;21376;50.954;4.716;2023-07-20T01:21:18;16.60;99.90
35240;DHT22;21376;50.954;4.716;2023-07-20T01:32:16;16.20;99.90
35240;DHT22;21376;50.954;4.716;2023-07-20T01:34:45;16.20;99.90
35240;DHT22;21376;50.954;4.716;2023-07-20T01:40:07;16.20;99.90
35240;DHT22;21376;50.954;4.716;2023-07-20T01:42:33;16.00;99.90
35240;DHT22;21376;50.954;4.716;2023-07-20T01:47:30;16.00;99.90
35240;DHT22;21376;50.954;4.716;2023-07-20T01:49:59;16.00;99.90
35240;DHT22;21376;50.954;4.716;2023-07-20T01:52:28;16.00;99.90
35240;DHT22;21376;50.954;4.716;2023-07-20T01:54:54;16.00;99.90
35240;DHT22;21376;50.954;4.716;2023-07-20T01:57:22;16.20;99.90
35240;DHT22;21376;50.954;4.716;2023-07-20T01:59:51;16.20;99.90
35240;DHT22;21376;50.954;4.716;2023-07-20T02:04:50;16.10;99.90
35240;DHT22;21376;50.954;4.716;2023-07-20T02:07:18;16.00;99.90
35240;DHT22;21376;50.954;4.716;2023-07-20T02:09:47;16.00;99.90
35240;DHT22;21376;50.954;4.716;2023-07-20T02:12:16;16.00;99.90
35240;DHT22;21376;50.954;4.716;2023-07-20T02:14:45;15.90;99.90
35240;DHT22;21376;50.954;4.716;2023-07-20T02:17:22;15.80;99.90
35240;DHT22;21376;50.954;4.716;2023-07-20T02:19:50;15.80;99.90
35240;DHT22;21376;50.954;4.716;2023-07-20T02:22:19;15.80;99.90
35240;DHT22;21376;50.954;4.716;2023-07-20T02:24:47;15.70;99.90
35240;DHT22;21376;50.954;4.716;2023-07-20T02:29:46;15.60;99.90
35240;DHT22;21376;50.954;4.716;2023-07-20T02:34:43;15.60;99.90
35240;DHT22;21376;50.954;4.716;2023-07-20T02:37:20;15.70;99.90
35240;DHT22;21376;50.954;4.716;2023-07-20T02:42:18;15.60;99.90
35240;DHT22;21376;50.954;4.716;2023-07-20T02:47:30;15.50;99.90
35240;DHT22;21376;50.954;4.716;2023-07-20T02:50:14;15.40;99.90
35240;DHT22;21376;50.954;4.716;2023-07-20T02:52:40;15.40;99.90
35240;DHT22;21376;50.954;4.716;2023-07-20T02:55:12;15.30;99.90
35240;DHT22;21376;50.954;4.716;2023-07-20T03:10:32;15.20;99.90
35240;DHT22;21376;50.954;4.716;2023-07-20T03:12:59;15.10;99.90
35240;DHT22;21376;50.954;4.716;2023-07-20T03:17:54;15.00;99.90
35240;DHT22;21376;50.954;4.716;2023-07-20T03:20:21;14.90;99.90
35240;DHT22;21376;50.954;4.716;2023-07-20T03:22:50;14.90;99.90
35240;DHT22;21376;50.954;4.716;2023-07-20T03:25:15;14.80;99.90
35240;DHT22;21376;50.954;4.716;2023-07-20T03:27:41;14.80;99.90
35240;DHT22;21376;50.954;4.716;2023-07-20T03:35:12;14.70;99.90
35240;DHT22;21376;50.954;4.716;2023-07-20T03:37:38;14.70;99.90
35240;DHT22;21376;50.954;4.716;2023-07-20T03:42:37;14.70;99.90
35240;DHT22;21376;50.954;4.716;2023-07-20T03:47:32;14.80;99.90
35240;DHT22;21376;50.954;4.716;2023-07-20T03:52:47;14.90;99.90
35240;DHT22;21376;50.954;4.716;2023-07-20T03:55:14;15.00;99.90
35240;DHT22;21376;50.954;4.716;2023-07-20T03:57:43;15.10;99.90
35240;DHT22;21376;50.954;4.716;2023-07-20T04:00:15;15.20;99.90
35240;DHT22;21376;50.954;4.716;2023-07-20T04:02:41;15.30;99.90
35240;DHT22;21376;50.954;4.716;2023-07-20T04:05:09;15.20;99.90
35240;DHT22;21376;50.954;4.716;2023-07-20T04:07:37;15.50;99.90
35240;DHT22;21376;50.954;4.716;2023-07-20T04:10:03;15.50;99.90
35240;DHT22;21376;50.954;4.716;2023-07-20T04:12:29;15.60;99.90
35240;DHT22;21376;50.954;4.716;2023-07-20T04:14:56;15.70;99.90
35240;DHT22;21376;50.954;4.716;2023-07-20T04:19:54;15.70;99.90
35240;DHT22;21376;50.954;4.716;2023-07-20T04:24:51;15.80;99.90
35240;DHT22;21376;50.954;4.716;2023-07-20T04:29:50;16.00;99.90
35240;DHT22;21376;50.954;4.716;2023-07-20T04:34:48;16.10;99.90
35240;DHT22;21376;50.954;4.716;2023-07-20T04:42:31;16.30;99.90
35240;DHT22;21376;50.954;4.716;2023-07-20T04:44:57;16.50;99.90
35240;DHT22;21376;50.954;4.716;2023-07-20T04:47:23;16.50;99.90
35240;DHT22;21376;50.954;4.716;2023-07-20T04:49:48;16.60;99.90
35240;DHT22;21376;50.954;4.716;2023-07-20T04:52:17;16.60;99.90
35240;DHT22;21376;50.954;4.716;2023-07-20T04:54:44;16.50;99.90
35240;DHT22;21376;50.954;4.716;2023-07-20T04:57:10;16.60;99.90
35240;DHT22;21376;50.954;4.716;2023-07-20T04:59:38;16.70;99.90
35240;DHT22;21376;50.954;4.716;2023-07-20T05:02:20;16.80;99.90
35240;DHT22;21376;50.954;4.716;2023-07-20T05:04:46;16.80;99.90
35240;DHT22;21376;50.954;4.716;2023-07-20T05:07:11;16.90;99.90
35240;DHT22;21376;50.954;4.716;2023-07-20T05:09:40;16.80;99.90
35240;DHT22;21376;50.954;4.716;2023-07-20T05:12:07;16.90;99.90
35240;DHT22;21376;50.954;4.716;2023-07-20T05:14:34;17.10;99.90
35240;DHT22;21376;50.954;4.716;2023-07-20T05:17:00;17.10;99.90
35240;DHT22;21376;50.954;4.716;2023-07-20T05:19:27;17.20;99.90
35240;DHT22;21376;50.954;4.716;2023-07-20T05:21:58;17.30;99.90
35240;DHT22;21376;50.954;4.716;2023-07-20T05:24:27;17.30;99.90
35240;DHT22;21376;50.954;4.716;2023-07-20T05:26:58;17.30;99.90
35240;DHT22;21376;50.954;4.716;2023-07-20T05:29:24;17.40;99.90
35240;DHT22;21376;50.954;4.716;2023-07-20T05:31:51;17.40;99.90
35240;DHT22;21376;50.954;4.716;2023-07-20T05:34:18;17.30;99.90
35240;DHT22;21376;50.954;4.716;2023-07-20T05:36:44;17.40;99.90
35240;DHT22;21376;50.954;4.716;2023-07-20T05:41:38;17.70;99.90
35240;DHT22;21376;50.954;4.716;2023-07-20T05:44:04;17.90;99.90
35240;DHT22;21376;50.954;4.716;2023-07-20T05:49:01;18.00;99.90
35240;DHT22;21376;50.954;4.716;2023-07-20T05:51:27;18.00;99.90
35240;DHT22;21376;50.954;4.716;2023-07-20T05:53:53;18.10;99.90
35240;DHT22;21376;50.954;4.716;2023-07-20T05:56:18;18.10;99.90
35240;DHT22;21376;50.954;4.716;2023-07-20T05:58:44;18.20;99.90
35240;DHT22;21376;50.954;4.716;2023-07-20T06:01:09;18.20;99.90
35240;DHT22;21376;50.954;4.716;2023-07-20T06:03:35;18.30;99.90
35240;DHT22;21376;50.954;4.716;2023-07-20T06:06:04;18.40;99.90
35240;DHT22;21376;50.954;4.716;2023-07-20T06:08:31;18.50;99.90
35240;DHT22;21376;50.954;4.716;2023-07-20T06:10:57;18.50;99.90
35240;DHT22;21376;50.954;4.716;2023-07-20T06:13:23;18.70;99.90
35240;DHT22;21376;50.954;4.716;2023-07-20T06:15:51;18.80;99.90
35240;DHT22;21376;50.954;4.716;2023-07-20T06:18:18;18.80;99.90
35240;DHT22;21376;50.954;4.716;2023-07-20T06:20:48;19.00;99.90
35240;DHT22;21376;50.954;4.716;2023-07-20T06:23:14;19.20;99.90
35240;DHT22;21376;50.954;4.716;2023-07-20T06:25:40;19.20;99.90
35240;DHT22;21376;50.954;4.716;2023-07-20T06:30:35;19.10;99.90
35240;DHT22;21376;50.954;4.716;2023-07-20T06:33:01;19.40;99.90
35240;DHT22;21376;50.954;4.716;2023-07-20T06:35:27;19.50;99.90
35240;DHT22;21376;50.954;4.716;2023-07-20T06:37:53;19.80;99.90
35240;DHT22;21376;50.954;4.716;2023-07-20T06:40:20;19.80;99.90
35240;DHT22;21376;50.954;4.716;2023-07-20T06:42:46;19.70;99.90
35240;DHT22;21376;50.954;4.716;2023-07-20T06:45:12;19.40;99.90
35240;DHT22;21376;50.954;4.716;2023-07-20T06:47:38;19.40;99.90
35240;DHT22;21376;50.954;4.716;2023-07-20T06:50:04;19.60;99.90
35240;DHT22;21376;50.954;4.716;2023-07-20T06:52:33;19.80;99.90
35240;DHT22;21376;50.954;4.716;2023-07-20T06:54:59;19.90;99.90
35240;DHT22;21376;50.954;4.716;2023-07-20T06:57:28;20.10;99.90
35240;DHT22;21376;50.954;4.716;2023-07-20T07:02:25;20.30;99.90
35240;DHT22;21376;50.954;4.716;2023-07-20T07:04:52;20.20;99.90
35240;DHT22;21376;50.954;4.716;2023-07-20T07:07:18;20.20;99.90
35240;DHT22;21376;50.954;4.716;2023-07-20T07:09:45;20.40;99.90
35240;DHT22;21376;50.954;4.716;2023-07-20T07:12:11;20.60;99.90
35240;DHT22;21376;50.954;4.716;2023-07-20T07:14:38;20.60;99.90
35240;DHT22;21376;50.954;4.716;2023-07-20T07:17:03;20.60;99.90
35240;DHT22;21376;50.954;4.716;2023-07-20T07:19:31;20.80;99.90
35240;DHT22;21376;50.954;4.716;2023-07-20T07:21:57;20.60;99.90
35240;DHT22;21376;50.954;4.716;2023-07-20T07:26:56;21.10;99.90
35240;DHT22;21376;50.954;4.716;2023-07-20T07:29:23;21.60;99.90
35240;DHT22;21376;50.954;4.716;2023-07-20T07:31:51;22.40;99.90
35240;DHT22;21376;50.954;4.716;2023-07-20T07:36:49;25.10;99.90
35240;DHT22;21376;50.954;4.716;2023-07-20T07:39:16;25.70;99.90
35240;DHT22;21376;50.954;4.716;2023-07-20T07:41:44;25.90;99.90
35240;DHT22;21376;50.954;4.716;2023-07-20T07:49:31;26.40;99.90
35240;DHT22;21376;50.954;4.716;2023-07-20T07:54:29;27.00;99.90
35240;DHT22;21376;50.954;4.716;2023-07-20T07:57:05;26.80;99.90
35240;DHT22;21376;50.954;4.716;2023-07-20T07:59:33;27.00;99.90
35240;DHT22;21376;50.954;4.716;2023-07-20T08:02:05;26.70;99.90
35240;DHT22;21376;50.954;4.716;2023-07-20T08:06:59;27.30;99.90
35240;DHT22;21376;50.954;4.716;2023-07-20T08:09:27;27.30;99.90
35240;DHT22;21376;50.954;4.716;2023-07-20T08:11:56;27.50;99.90
35240;DHT22;21376;50.954;4.716;2023-07-20T08:16:53;28.80;99.90
35240;DHT22;21376;50.954;4.716;2023-07-20T08:19:19;27.60;99.90
35240;DHT22;21376;50.954;4.716;2023-07-20T08:21:48;27.00;99.90
35240;DHT22;21376;50.954;4.716;2023-07-20T08:24:17;27.00;99.90
35240;DHT22;21376;50.954;4.716;2023-07-20T08:26:43;26.50;99.90
35240;DHT22;21376;50.954;4.716;2023-07-20T08:29:11;24.70;99.90
35240;DHT22;21376;50.954;4.716;2023-07-20T08:31:38;23.90;99.90
35240;DHT22;21376;50.954;4.716;2023-07-20T08:34:07;23.70;99.90
35240;DHT22;21376;50.954;4.716;2023-07-20T08:36:34;24.30;99.90
35240;DHT22;21376;50.954;4.716;2023-07-20T08:39:02;26.30;99.90
35240;DHT22;21376;50.954;4.716;2023-07-20T08:44:00;32.90;99.90
35240;DHT22;21376;50.954;4.716;2023-07-20T08:46:28;34.70;96.60
35240;DHT22;21376;50.954;4.716;2023-07-20T08:48:57;35.80;94.00
35240;DHT22;21376;50.954;4.716;2023-07-20T08:51:23;36.00;91.00
35240;DHT22;21376;50.954;4.716;2023-07-20T08:53:52;33.80;91.20
35240;DHT22;21376;50.954;4.716;2023-07-20T08:56:17;32.40;94.20
35240;DHT22;21376;50.954;4.716;2023-07-20T08:58:47;30.90;94.60
35240;DHT22;21376;50.954;4.716;2023-07-20T09:03:44;29.20;98.00
35240;DHT22;21376;50.954;4.716;2023-07-20T09:06:16;28.70;98.70
35240;DHT22;21376;50.954;4.716;2023-07-20T09:08:45;28.60;99.70
35240;DHT22;21376;50.954;4.716;2023-07-20T09:11:13;29.50;99.50
35240;DHT22;21376;50.954;4.716;2023-07-20T09:13:42;30.80;95.40
35240;DHT22;21376;50.954;4.716;2023-07-20T09:16:08;29.10;96.60
35240;DHT22;21376;50.954;4.716;2023-07-20T09:18:34;28.10;97.90
35240;DHT22;21376;50.954;4.716;2023-07-20T09:21:05;26.60;99.90
35240;DHT22;21376;50.954;4.716;2023-07-20T09:23:48;26.50;99.90
35240;DHT22;21376;50.954;4.716;2023-07-20T09:26:14;30.60;95.60
35240;DHT22;21376;50.954;4.716;2023-07-20T09:28:53;34.00;91.90
35240;DHT22;21376;50.954;4.716;2023-07-20T09:31:22;36.00;89.20
35240;DHT22;21376;50.954;4.716;2023-07-20T09:33:59;36.50;80.20
35240;DHT22;21376;50.954;4.716;2023-07-20T09:38:56;37.50;76.50
35240;DHT22;21376;50.954;4.716;2023-07-20T09:43:53;34.10;81.50
35240;DHT22;21376;50.954;4.716;2023-07-20T09:46:20;32.60;84.00
35240;DHT22;21376;50.954;4.716;2023-07-20T09:48:52;32.40;87.90
35240;DHT22;21376;50.954;4.716;2023-07-20T09:51:22;32.60;83.20
35240;DHT22;21376;50.954;4.716;2023-07-20T09:56:21;34.20;84.50
35240;DHT22;21376;50.954;4.716;2023-07-20T09:58:53;35.70;76.80
35240;DHT22;21376;50.954;4.716;2023-07-20T10:01:23;35.10;82.40
35240;DHT22;21376;50.954;4.716;2023-07-20T10:03:53;35.40;85.00
35240;DHT22;21376;50.954;4.716;2023-07-20T10:06:23;36.30;83.20
35240;DHT22;21376;50.954;4.716;2023-07-20T10:08:52;38.10;75.90
35240;DHT22;21376;50.954;4.716;2023-07-20T10:11:24;36.50;75.00
35240;DHT22;21376;50.954;4.716;2023-07-20T10:13:55;35.40;76.70
35240;DHT22;21376;50.954;4.716;2023-07-20T10:16:36;35.50;74.90
35240;DHT22;21376;50.954;4.716;2023-07-20T10:21:39;35.10;75.30
35240;DHT22;21376;50.954;4.716;2023-07-20T10:26:35;35.60;76.10
35240;DHT22;21376;50.954;4.716;2023-07-20T10:29:07;34.90;73.10
35240;DHT22;21376;50.954;4.716;2023-07-20T10:31:37;34.40;74.80
35240;DHT22;21376;50.954;4.716;2023-07-20T10:34:06;34.00;74.10
35240;DHT22;21376;50.954;4.716;2023-07-20T10:36:33;33.30;75.40
35240;DHT22;21376;50.954;4.716;2023-07-20T10:45:03;34.00;78.30
35240;DHT22;21376;50.954;4.716;2023-07-20T10:50:02;37.00;72.70
35240;DHT22;21376;50.954;4.716;2023-07-20T10:52:39;37.90;68.60
35240;DHT22;21376;50.954;4.716;2023-07-20T10:57:43;38.30;65.50
35240;DHT22;21376;50.954;4.716;2023-07-20T11:02:59;38.50;66.70
35240;DHT22;21376;50.954;4.716;2023-07-20T11:08:05;36.60;67.50
35240;DHT22;21376;50.954;4.716;2023-07-20T11:10:31;36.20;66.50
35240;DHT22;21376;50.954;4.716;2023-07-20T11:18:26;32.70;71.40
35240;DHT22;21376;50.954;4.716;2023-07-20T11:20:53;32.50;73.60
35240;DHT22;21376;50.954;4.716;2023-07-20T11:23:25;32.60;71.70
35240;DHT22;21376;50.954;4.716;2023-07-20T11:30:54;35.40;67.90
35240;DHT22;21376;50.954;4.716;2023-07-20T11:33:26;34.00;67.80
35240;DHT22;21376;50.954;4.716;2023-07-20T11:35:52;34.60;68.10
35240;DHT22;21376;50.954;4.716;2023-07-20T11:38:18;34.10;70.00
35240;DHT22;21376;50.954;4.716;2023-07-20T11:40:44;33.50;72.30
35240;DHT22;21376;50.954;4.716;2023-07-20T11:45:46;31.70;71.90
35240;DHT22;21376;50.954;4.716;2023-07-20T11:48:18;30.70;77.20
35240;DHT22;21376;50.954;4.716;2023-07-20T11:53:14;30.10;78.50
35240;DHT22;21376;50.954;4.716;2023-07-20T11:55:40;29.40;80.50
35240;DHT22;21376;50.954;4.716;2023-07-20T11:58:09;29.50;82.80
35240;DHT22;21376;50.954;4.716;2023-07-20T12:00:38;30.50;79.90
35240;DHT22;21376;50.954;4.716;2023-07-20T12:03:05;32.30;75.70
35240;DHT22;21376;50.954;4.716;2023-07-20T12:05:32;33.20;73.20
35240;DHT22;21376;50.954;4.716;2023-07-20T12:07:57;33.00;72.20
35240;DHT22;21376;50.954;4.716;2023-07-20T12:10:27;33.20;74.70
35240;DHT22;21376;50.954;4.716;2023-07-20T12:12:53;31.30;73.20
35240;DHT22;21376;50.954;4.716;2023-07-20T12:15:23;29.00;80.30
35240;DHT22;21376;50.954;4.716;2023-07-20T12:17:49;28.50;78.90
35240;DHT22;21376;50.954;4.716;2023-07-20T12:20:24;28.40;82.40
35240;DHT22;21376;50.954;4.716;2023-07-20T12:22:51;29.00;80.60
35240;DHT22;21376;50.954;4.716;2023-07-20T12:25:36;28.40;80.30
35240;DHT22;21376;50.954;4.716;2023-07-20T12:28:15;27.80;81.70
35240;DHT22;21376;50.954;4.716;2023-07-20T12:33:12;27.40;84.40
35240;DHT22;21376;50.954;4.716;2023-07-20T12:35:42;26.70;84.50
35240;DHT22;21376;50.954;4.716;2023-07-20T12:38:08;26.70;85.70
35240;DHT22;21376;50.954;4.716;2023-07-20T12:40:34;27.50;87.80
35240;DHT22;21376;50.954;4.716;2023-07-20T12:43:01;29.00;83.00
35240;DHT22;21376;50.954;4.716;2023-07-20T12:45:33;30.00;86.10
35240;DHT22;21376;50.954;4.716;2023-07-20T12:48:00;31.40;78.70
35240;DHT22;21376;50.954;4.716;2023-07-20T12:50:29;32.10;78.40
35240;DHT22;21376;50.954;4.716;2023-07-20T12:52:55;32.60;74.90
35240;DHT22;21376;50.954;4.716;2023-07-20T12:55:26;32.20;76.70
35240;DHT22;21376;50.954;4.716;2023-07-20T12:57:52;32.20;75.20
35240;DHT22;21376;50.954;4.716;2023-07-20T13:00:20;31.60;75.80
35240;DHT22;21376;50.954;4.716;2023-07-20T13:02:47;31.30;71.90
35240;DHT22;21376;50.954;4.716;2023-07-20T13:05:14;30.80;72.90
35240;DHT22;21376;50.954;4.716;2023-07-20T13:07:40;30.40;74.10
35240;DHT22;21376;50.954;4.716;2023-07-20T13:10:07;30.20;76.90
35240;DHT22;21376;50.954;4.716;2023-07-20T13:12:34;30.50;75.30
35240;DHT22;21376;50.954;4.716;2023-07-20T13:15:03;30.70;77.70
35240;DHT22;21376;50.954;4.716;2023-07-20T13:17:38;30.40;76.70
35240;DHT22;21376;50.954;4.716;2023-07-20T13:20:08;30.50;78.80
35240;DHT22;21376;50.954;4.716;2023-07-20T13:22:36;29.60;75.80
35240;DHT22;21376;50.954;4.716;2023-07-20T13:25:01;29.10;81.20
35240;DHT22;21376;50.954;4.716;2023-07-20T13:27:30;29.40;81.60
35240;DHT22;21376;50.954;4.716;2023-07-20T13:30:01;29.50;81.30
35240;DHT22;21376;50.954;4.716;2023-07-20T13:32:31;29.60;81.60
35240;DHT22;21376;50.954;4.716;2023-07-20T13:34:57;29.70;80.30
35240;DHT22;21376;50.954;4.716;2023-07-20T13:37:23;29.90;82.60
35240;DHT22;21376;50.954;4.716;2023-07-20T13:39:49;29.40;77.10
35240;DHT22;21376;50.954;4.716;2023-07-20T13:42:14;28.70;79.90
35240;DHT22;21376;50.954;4.716;2023-07-20T13:44:42;28.80;79.10
35240;DHT22;21376;50.954;4.716;2023-07-20T13:47:14;28.80;83.20
35240;DHT22;21376;50.954;4.716;2023-07-20T13:49:43;28.50;82.70
35240;DHT22;21376;50.954;4.716;2023-07-20T13:52:11;28.80;82.10
35240;DHT22;21376;50.954;4.716;2023-07-20T13:57:35;27.80;82.10
35240;DHT22;21376;50.954;4.716;2023-07-20T14:05:23;27.40;86.00
35240;DHT22;21376;50.954;4.716;2023-07-20T14:08:00;27.20;87.40
35240;DHT22;21376;50.954;4.716;2023-07-20T14:10:29;27.00;88.40
35240;DHT22;21376;50.954;4.716;2023-07-20T14:13:05;26.60;88.40
35240;DHT22;21376;50.954;4.716;2023-07-20T14:15:41;26.50;88.70
35240;DHT22;21376;50.954;4.716;2023-07-20T14:18:10;26.30;90.30
35240;DHT22;21376;50.954;4.716;2023-07-20T14:20:35;26.00;89.80
35240;DHT22;21376;50.954;4.716;2023-07-20T14:23:01;25.90;90.50
35240;DHT22;21376;50.954;4.716;2023-07-20T14:25:28;26.00;90.50
35240;DHT22;21376;50.954;4.716;2023-07-20T14:27:56;25.90;91.30
35240;DHT22;21376;50.954;4.716;2023-07-20T14:30:28;26.10;91.00
35240;DHT22;21376;50.954;4.716;2023-07-20T14:32:56;26.00;91.00
35240;DHT22;21376;50.954;4.716;2023-07-20T14:35:27;26.20;90.80
35240;DHT22;21376;50.954;4.716;2023-07-20T14:40:31;26.70;90.60
35240;DHT22;21376;50.954;4.716;2023-07-20T14:47:59;27.10;89.70
35240;DHT22;21376;50.954;4.716;2023-07-20T14:50:26;26.90;90.00
35240;DHT22;21376;50.954;4.716;2023-07-20T14:52:51;26.90;89.30
35240;DHT22;21376;50.954;4.716;2023-07-20T14:55:19;26.70;89.30
35240;DHT22;21376;50.954;4.716;2023-07-20T14:57:46;26.70;90.40
35240;DHT22;21376;50.954;4.716;2023-07-20T15:00:15;26.80;91.00
35240;DHT22;21376;50.954;4.716;2023-07-20T15:05:22;27.10;90.40
35240;DHT22;21376;50.954;4.716;2023-07-20T15:07:50;26.80;90.30
35240;DHT22;21376;50.954;4.716;2023-07-20T15:10:16;26.60;90.50
35240;DHT22;21376;50.954;4.716;2023-07-20T15:12:45;26.50;91.40
35240;DHT22;21376;50.954;4.716;2023-07-20T15:18:06;26.50;90.40
35240;DHT22;21376;50.954;4.716;2023-07-20T15:20:33;26.40;90.30
35240;DHT22;21376;50.954;4.716;2023-07-20T15:25:29;26.40;90.50
35240;DHT22;21376;50.954;4.716;2023-07-20T15:30:27;26.20;91.40
35240;DHT22;21376;50.954;4.716;2023-07-20T15:32:53;26.10;91.20
35240;DHT22;21376;50.954;4.716;2023-07-20T15:35:24;26.40;91.50
35240;DHT22;21376;50.954;4.716;2023-07-20T15:40:21;26.60;91.10
35240;DHT22;21376;50.954;4.716;2023-07-20T15:43:03;26.60;91.40
35240;DHT22;21376;50.954;4.716;2023-07-20T15:45:32;26.50;90.80
35240;DHT22;21376;50.954;4.716;2023-07-20T15:50:29;26.30;91.50
35240;DHT22;21376;50.954;4.716;2023-07-20T15:55:26;25.80;93.00
35240;DHT22;21376;50.954;4.716;2023-07-20T16:08:25;25.40;95.00
35240;DHT22;21376;50.954;4.716;2023-07-20T16:13:23;25.40;93.40
35240;DHT22;21376;50.954;4.716;2023-07-20T16:15:55;25.40;93.00
35240;DHT22;21376;50.954;4.716;2023-07-20T16:18:22;25.40;94.00
35240;DHT22;21376;50.954;4.716;2023-07-20T16:23:39;25.00;93.40
35240;DHT22;21376;50.954;4.716;2023-07-20T16:28:57;24.20;94.70
35240;DHT22;21376;50.954;4.716;2023-07-20T16:31:26;23.60;96.80
35240;DHT22;21376;50.954;4.716;2023-07-20T16:33:53;22.30;99.90
35240;DHT22;21376;50.954;4.716;2023-07-20T16:36:20;20.70;99.90
35240;DHT22;21376;50.954;4.716;2023-07-20T16:38:51;19.90;99.90
35240;DHT22;21376;50.954;4.716;2023-07-20T16:41:20;19.20;99.90
35240;DHT22;21376;50.954;4.716;2023-07-20T16:43:49;18.70;99.90
35240;DHT22;21376;50.954;4.716;2023-07-20T16:48:47;18.20;99.90
35240;DHT22;21376;50.954;4.716;2023-07-20T16:53:45;18.00;99.90
35240;DHT22;21376;50.954;4.716;2023-07-20T16:56:14;17.90;99.90
35240;DHT22;21376;50.954;4.716;2023-07-20T16:58:41;17.90;99.90
35240;DHT22;21376;50.954;4.716;2023-07-20T17:01:09;17.90;99.90
35240;DHT22;21376;50.954;4.716;2023-07-20T17:03:38;17.90;99.90
35240;DHT22;21376;50.954;4.716;2023-07-20T17:06:04;18.00;99.90
35240;DHT22;21376;50.954;4.716;2023-07-20T17:08:34;18.00;99.90
35240;DHT22;21376;50.954;4.716;2023-07-20T17:11:03;18.00;99.90
35240;DHT22;21376;50.954;4.716;2023-07-20T17:13:38;18.10;99.90
35240;DHT22;21376;50.954;4.716;2023-07-20T17:16:07;18.10;99.90
35240;DHT22;21376;50.954;4.716;2023-07-20T17:18:36;18.10;99.90
35240;DHT22;21376;50.954;4.716;2023-07-20T17:26:18;18.10;99.90
35240;DHT22;21376;50.954;4.716;2023-07-20T17:28:50;18.20;99.90
35240;DHT22;21376;50.954;4.716;2023-07-20T17:31:19;18.20;99.90
35240;DHT22;21376;50.954;4.716;2023-07-20T17:33:51;18.20;99.90
35240;DHT22;21376;50.954;4.716;2023-07-20T17:36:16;18.10;99.90
35240;DHT22;21376;50.954;4.716;2023-07-20T17:38:43;18.20;99.90
35240;DHT22;21376;50.954;4.716;2023-07-20T17:41:12;18.30;99.90
35240;DHT22;21376;50.954;4.716;2023-07-20T17:43:39;18.50;99.90
35240;DHT22;21376;50.954;4.716;2023-07-20T17:48:33;18.30;99.90
35240;DHT22;21376;50.954;4.716;2023-07-20T17:51:01;18.30;99.90
35240;DHT22;21376;50.954;4.716;2023-07-20T17:53:28;18.30;99.90
35240;DHT22;21376;50.954;4.716;2023-07-20T17:55:56;18.40;99.90
35240;DHT22;21376;50.954;4.716;2023-07-20T17:58:22;18.40;99.90
35240;DHT22;21376;50.954;4.716;2023-07-20T18:00:49;18.60;99.90
35240;DHT22;21376;50.954;4.716;2023-07-20T18:03:19;18.50;99.90
35240;DHT22;21376;50.954;4.716;2023-07-20T18:05:46;18.50;99.90
35240;DHT22;21376;50.954;4.716;2023-07-20T18:08:12;18.20;99.90
35240;DHT22;21376;50.954;4.716;2023-07-20T18:10:38;18.00;99.90
35240;DHT22;21376;50.954;4.716;2023-07-20T18:13:03;17.90;99.90
35240;DHT22;21376;50.954;4.716;2023-07-20T18:15:29;18.10;99.90
35240;DHT22;21376;50.954;4.716;2023-07-20T18:17:57;18.00;99.90
35240;DHT22;21376;50.954;4.716;2023-07-20T18:20:22;17.90;99.90
35240;DHT22;21376;50.954;4.716;2023-07-20T18:22:50;18.00;99.90
35240;DHT22;21376;50.954;4.716;2023-07-20T18:25:21;18.10;99.90
35240;DHT22;21376;50.954;4.716;2023-07-20T18:27:49;18.20;99.90
35240;DHT22;21376;50.954;4.716;2023-07-20T18:30:15;18.40;99.90
35240;DHT22;21376;50.954;4.716;2023-07-20T18:32:43;18.70;99.90
35240;DHT22;21376;50.954;4.716;2023-07-20T18:37:42;18.50;99.90
35240;DHT22;21376;50.954;4.716;2023-07-20T18:40:08;18.70;99.90
35240;DHT22;21376;50.954;4.716;2023-07-20T18:42:34;18.90;99.90
35240;DHT22;21376;50.954;4.716;2023-07-20T18:45:00;19.10;99.90
35240;DHT22;21376;50.954;4.716;2023-07-20T18:47:25;19.10;99.90
35240;DHT22;21376;50.954;4.716;2023-07-20T18:49:52;19.10;99.90
35240;DHT22;21376;50.954;4.716;2023-07-20T18:52:20;19.10;99.90
35240;DHT22;21376;50.954;4.716;2023-07-20T18:54:47;19.10;99.90
35240;DHT22;21376;50.954;4.716;2023-07-20T18:57:13;19.10;99.90
35240;DHT22;21376;50.954;4.716;2023-07-20T18:59:39;19.10;99.90
35240;DHT22;21376;50.954;4.716;2023-07-20T19:02:06;19.10;99.90
35240;DHT22;21376;50.954;4.716;2023-07-20T19:04:32;19.00;99.90
35240;DHT22;21376;50.954;4.716;2023-07-20T19:07:01;19.00;99.90
35240;DHT22;21376;50.954;4.716;2023-07-20T19:09:27;18.90;99.90
35240;DHT22;21376;50.954;4.716;2023-07-20T19:11:52;19.00;99.90
35240;DHT22;21376;50.954;4.716;2023-07-20T19:14:19;18.80;99.90
35240;DHT22;21376;50.954;4.716;2023-07-20T19:16:44;18.80;99.90
35240;DHT22;21376;50.954;4.716;2023-07-20T19:21:41;18.50;99.90